createdAt,value
2023-12-19T00:00:30.705Z,16.80
2023-12-19T00:02:57.973Z,17.70
2023-12-19T00:05:24.762Z,17.13
2023-12-19T00:07:51.819Z,17.13
2023-12-19T00:10:18.347Z,16.58
2023-12-19T00:12:45.426Z,16.95
2023-12-19T00:15:12.215Z,16.90
2023-12-19T00:17:40.393Z,16.02
2023-12-19T00:20:07.611Z,16.42
2023-12-19T00:22:34.100Z,16.40
2023-12-19T00:25:00.750Z,15.80
2023-12-19T00:27:27.334Z,16.67
2023-12-19T00:29:53.852Z,17.98
2023-12-19T00:32:20.328Z,17.48
2023-12-19T00:34:47.003Z,19.25
2023-12-19T00:37:15.036Z,19.85
2023-12-19T00:39:41.620Z,19.02
2023-12-19T00:42:08.233Z,19.23
2023-12-19T00:44:37.537Z,20.03
2023-12-19T00:47:04.787Z,19.67
2023-12-19T00:49:31.481Z,21.23
2023-12-19T00:51:58.178Z,22.00
2023-12-19T00:54:24.845Z,22.13
2023-12-19T00:56:51.401Z,21.05
2023-12-19T00:59:17.966Z,21.20
2023-12-19T01:01:44.612Z,21.50
2023-12-19T01:04:12.299Z,21.42
2023-12-19T01:06:39.172Z,21.88
2023-12-19T01:09:06.700Z,22.10
2023-12-19T01:11:33.402Z,22.35
2023-12-19T01:13:59.981Z,22.58
2023-12-19T01:16:26.673Z,19.95
2023-12-19T01:18:53.346Z,19.52
2023-12-19T01:21:19.916Z,18.95
2023-12-19T01:23:46.537Z,18.70
2023-12-19T01:26:19.854Z,18.80
2023-12-19T01:28:50.603Z,18.95
2023-12-19T01:31:17.498Z,19.25
2023-12-19T01:33:44.268Z,19.02
2023-12-19T01:36:11.512Z,19.30
2023-12-19T01:38:38.204Z,18.90
2023-12-19T01:41:04.867Z,20.00
2023-12-19T01:43:32.126Z,21.95
2023-12-19T01:45:58.801Z,20.73
2023-12-19T01:48:27.444Z,22.67
2023-12-19T01:50:54.070Z,21.13
2023-12-19T01:53:23.044Z,19.90
2023-12-19T01:55:52.742Z,19.67
2023-12-19T01:58:21.456Z,20.85
2023-12-19T02:00:48.218Z,19.88
2023-12-19T02:03:14.965Z,20.38
2023-12-19T02:05:44.961Z,18.95
2023-12-19T02:08:11.748Z,20.27
2023-12-19T02:10:38.376Z,20.67
2023-12-19T02:13:05.216Z,20.73
2023-12-19T02:15:32.033Z,21.00
2023-12-19T02:17:58.699Z,20.58
2023-12-19T02:20:25.222Z,20.75
2023-12-19T02:22:53.457Z,21.37
2023-12-19T02:25:21.502Z,22.85
2023-12-19T02:27:48.623Z,22.50
2023-12-19T02:30:15.389Z,21.55
2023-12-19T02:32:44.085Z,22.40
2023-12-19T02:35:10.813Z,23.02
2023-12-19T02:37:37.323Z,23.63
2023-12-19T02:40:04.348Z,23.73
2023-12-19T02:42:31.116Z,23.20
2023-12-19T02:44:57.701Z,22.88
2023-12-19T02:47:24.233Z,23.45
2023-12-19T02:49:50.820Z,22.92
2023-12-19T02:52:17.341Z,23.35
2023-12-19T02:54:43.871Z,22.40
2023-12-19T02:57:10.392Z,22.67
2023-12-19T02:59:36.885Z,21.67
2023-12-19T03:02:03.423Z,22.13
2023-12-19T03:04:30.023Z,22.50
2023-12-19T03:06:56.920Z,22.65
2023-12-19T03:09:23.541Z,22.90
2023-12-19T03:12:04.981Z,22.48
2023-12-19T03:14:33.072Z,21.70
2023-12-19T03:16:59.825Z,22.50
2023-12-19T03:19:26.636Z,20.70
2023-12-19T03:21:53.492Z,18.67
2023-12-19T03:24:20.098Z,18.08
2023-12-19T03:26:46.625Z,17.25
2023-12-19T03:29:13.219Z,16.30
2023-12-19T03:31:39.819Z,15.90
2023-12-19T03:34:06.464Z,16.67
2023-12-19T03:36:33.204Z,15.32
2023-12-19T03:38:59.713Z,15.70
2023-12-19T03:41:26.248Z,14.97
2023-12-19T03:43:52.844Z,13.57
2023-12-19T03:46:19.437Z,12.80
2023-12-19T03:48:47.040Z,13.13
2023-12-19T03:51:13.907Z,13.10
2023-12-19T03:53:40.426Z,12.85
2023-12-19T03:56:07.925Z,11.95
2023-12-19T03:58:34.771Z,11.50
2023-12-19T04:01:02.185Z,10.55
2023-12-19T04:03:28.894Z,10.35
2023-12-19T04:05:55.420Z,10.07
2023-12-19T04:08:22.048Z,9.17
2023-12-19T04:10:48.637Z,9.00
2023-12-19T04:13:15.337Z,9.63
2023-12-19T04:15:41.951Z,9.07
2023-12-19T04:18:11.266Z,9.57
2023-12-19T04:20:38.255Z,9.75
2023-12-19T04:23:04.763Z,10.38
2023-12-19T04:25:31.252Z,10.52
2023-12-19T04:27:57.900Z,10.75
2023-12-19T04:30:24.585Z,11.57
2023-12-19T04:32:51.274Z,12.20
2023-12-19T04:35:17.832Z,12.38
2023-12-19T04:37:44.517Z,12.30
2023-12-19T04:40:11.245Z,13.07
2023-12-19T04:42:37.791Z,13.05
2023-12-19T04:45:04.911Z,13.45
2023-12-19T04:47:31.413Z,14.32
2023-12-19T04:49:58.308Z,13.55
2023-12-19T04:52:24.801Z,15.00
2023-12-19T04:54:51.414Z,16.40
2023-12-19T04:57:18.072Z,14.90
2023-12-19T04:59:44.628Z,15.67
2023-12-19T05:02:11.507Z,16.40
2023-12-19T05:04:37.991Z,15.30
2023-12-19T05:07:04.535Z,16.02
2023-12-19T05:09:31.144Z,16.50
2023-12-19T05:11:57.687Z,15.88
2023-12-19T05:14:24.195Z,16.10
2023-12-19T05:16:50.713Z,15.97
2023-12-19T05:19:17.313Z,16.88
2023-12-19T05:21:43.891Z,16.13
2023-12-19T05:24:10.960Z,16.40
2023-12-19T05:26:37.486Z,16.83
2023-12-19T05:29:04.055Z,16.05
2023-12-19T05:31:30.724Z,16.60
2023-12-19T05:33:57.312Z,16.75
2023-12-19T05:36:23.990Z,16.88
2023-12-19T05:38:50.542Z,16.98
2023-12-19T05:41:17.854Z,16.58
2023-12-19T05:43:44.996Z,16.60
2023-12-19T05:46:11.780Z,16.92
2023-12-19T05:48:38.460Z,16.75
2023-12-19T05:51:06.319Z,15.15
2023-12-19T05:53:32.919Z,15.70
2023-12-19T05:55:59.460Z,16.35
2023-12-19T05:58:26.057Z,14.18
2023-12-19T06:00:55.374Z,14.90
2023-12-19T06:03:21.946Z,7.68
2023-12-19T06:05:48.511Z,6.15
2023-12-19T06:08:17.647Z,9.38
2023-12-19T06:10:44.198Z,9.50
2023-12-19T06:13:10.771Z,10.60
2023-12-19T06:15:37.536Z,11.25
2023-12-19T06:18:04.546Z,12.00
2023-12-19T06:20:31.147Z,12.52
2023-12-19T06:22:57.967Z,8.10
2023-12-19T06:25:24.447Z,10.48
2023-12-19T06:27:51.020Z,11.20
2023-12-19T06:30:26.103Z,11.40
2023-12-19T06:32:56.201Z,12.32
2023-12-19T06:35:23.104Z,11.45
2023-12-19T06:37:49.779Z,12.88
2023-12-19T06:40:17.022Z,13.02
2023-12-19T06:42:43.952Z,12.85
2023-12-19T06:45:13.278Z,13.60
2023-12-19T06:47:40.109Z,13.27
2023-12-19T06:50:07.197Z,13.60
2023-12-19T06:52:33.804Z,14.18
2023-12-19T06:55:00.624Z,14.55
2023-12-19T06:57:28.304Z,15.15
2023-12-19T06:59:54.804Z,15.25
2023-12-19T07:02:21.310Z,15.50
2023-12-19T07:04:48.158Z,15.73
2023-12-19T07:07:14.685Z,15.18
2023-12-19T07:09:41.186Z,15.07
2023-12-19T07:12:07.966Z,15.88
2023-12-19T07:14:34.446Z,15.68
2023-12-19T07:17:00.936Z,16.27
2023-12-19T07:19:27.594Z,15.52
2023-12-19T07:21:54.149Z,15.73
2023-12-19T07:24:20.961Z,16.48
2023-12-19T07:26:47.478Z,16.38
2023-12-19T07:29:13.958Z,16.08
2023-12-19T07:31:41.365Z,16.27
2023-12-19T07:34:08.962Z,16.67
2023-12-19T07:36:35.957Z,17.83
2023-12-19T07:39:02.631Z,17.20
2023-12-19T07:41:29.273Z,17.50
2023-12-19T07:43:56.861Z,17.00
2023-12-19T07:46:23.688Z,17.33
2023-12-19T07:48:51.153Z,17.75
2023-12-19T07:51:19.345Z,18.35
2023-12-19T07:53:46.149Z,18.13
2023-12-19T07:56:12.692Z,19.13
2023-12-19T07:58:39.357Z,18.92
2023-12-19T08:01:06.282Z,19.38
2023-12-19T08:03:34.648Z,19.63
2023-12-19T08:06:01.211Z,19.42
2023-12-19T08:08:27.683Z,19.70
2023-12-19T08:10:54.179Z,18.35
2023-12-19T08:13:21.446Z,18.90
2023-12-19T08:15:51.628Z,18.95
2023-12-19T08:18:18.604Z,19.67
2023-12-19T08:20:46.059Z,19.60
2023-12-19T08:23:14.656Z,20.30
2023-12-19T08:25:42.816Z,20.55
2023-12-19T08:28:09.946Z,20.33
2023-12-19T08:30:36.740Z,22.25
2023-12-19T08:33:04.015Z,20.75
2023-12-19T08:35:30.878Z,21.05
2023-12-19T08:37:57.575Z,21.00
2023-12-19T08:40:24.556Z,22.05
2023-12-19T08:42:51.157Z,21.67
2023-12-19T08:45:19.246Z,21.17
2023-12-19T08:47:46.804Z,22.10
2023-12-19T08:50:14.267Z,19.65
2023-12-19T08:52:42.559Z,20.88
2023-12-19T08:55:13.064Z,20.02
2023-12-19T08:57:42.641Z,20.30
2023-12-19T09:00:14.070Z,19.63
2023-12-19T09:02:44.328Z,18.80
2023-12-19T09:05:15.274Z,20.05
2023-12-19T09:07:43.113Z,19.58
2023-12-19T09:10:12.793Z,20.63
2023-12-19T09:12:40.017Z,18.83
2023-12-19T09:15:08.004Z,18.20
2023-12-19T09:17:35.474Z,18.10
2023-12-19T09:20:06.460Z,17.75
2023-12-19T09:22:33.490Z,19.60
2023-12-19T09:25:00.026Z,19.05
2023-12-19T09:27:26.691Z,17.80
2023-12-19T09:29:53.260Z,17.42
2023-12-19T09:32:20.695Z,17.17
2023-12-19T09:34:48.170Z,17.47
2023-12-19T09:37:15.088Z,18.00
2023-12-19T09:39:41.819Z,18.47
2023-12-19T09:42:08.520Z,18.63
2023-12-19T09:44:35.170Z,19.45
2023-12-19T09:47:02.934Z,18.50
2023-12-19T09:49:33.660Z,18.02
2023-12-19T09:52:00.991Z,18.92
2023-12-19T09:54:28.039Z,17.30
2023-12-19T09:56:55.392Z,18.38
2023-12-19T09:59:22.534Z,18.30
2023-12-19T10:01:49.576Z,19.38
2023-12-19T10:04:18.025Z,18.08
2023-12-19T10:06:56.097Z,18.50
2023-12-19T10:09:23.606Z,18.40
2023-12-19T10:12:06.300Z,18.60
2023-12-19T10:14:34.244Z,18.23
2023-12-19T10:17:02.860Z,18.35
2023-12-19T10:19:29.669Z,18.33
2023-12-19T10:22:07.375Z,16.83
2023-12-19T10:24:34.441Z,18.27
2023-12-19T10:27:06.840Z,17.47
2023-12-19T10:29:40.244Z,18.25
2023-12-19T10:32:17.909Z,17.25
2023-12-19T10:34:45.777Z,18.48
2023-12-19T10:37:22.778Z,18.40
2023-12-19T10:39:50.237Z,17.52
2023-12-19T10:42:20.040Z,17.23
2023-12-19T10:44:49.134Z,17.13
2023-12-19T10:47:15.635Z,15.95
2023-12-19T10:49:42.290Z,16.92
2023-12-19T10:52:13.711Z,17.17
2023-12-19T10:54:43.549Z,16.50
2023-12-19T10:57:19.930Z,15.38
2023-12-19T10:59:49.502Z,15.68
2023-12-19T11:02:47.199Z,15.60
2023-12-19T11:05:41.396Z,15.52
2023-12-19T11:08:19.977Z,15.95
2023-12-19T11:11:13.834Z,16.20
2023-12-19T11:13:43.987Z,15.13
2023-12-19T11:16:17.920Z,16.42
2023-12-19T11:18:52.463Z,16.98
2023-12-19T11:21:25.752Z,15.87
2023-12-19T11:24:12.154Z,16.63
2023-12-19T11:26:46.491Z,15.88
2023-12-19T11:29:48.048Z,14.57
2023-12-19T11:32:29.974Z,16.02
2023-12-19T11:35:11.174Z,14.73
2023-12-19T11:37:38.335Z,14.97
2023-12-19T11:40:07.205Z,15.57
2023-12-19T11:42:43.209Z,15.48
2023-12-19T11:45:18.970Z,18.55
2023-12-19T11:47:47.250Z,15.95
2023-12-19T11:50:39.828Z,15.98
2023-12-19T11:53:07.060Z,15.03
2023-12-19T11:55:33.653Z,15.75
2023-12-19T11:58:09.674Z,14.85
2023-12-19T12:00:36.755Z,15.43
2023-12-19T12:03:08.676Z,15.07
2023-12-19T12:05:35.593Z,15.18
2023-12-19T12:08:02.087Z,15.38
2023-12-19T12:10:28.737Z,15.45
2023-12-19T12:12:57.212Z,15.35
2023-12-19T12:15:25.199Z,14.77
2023-12-19T12:18:02.471Z,15.63
2023-12-19T12:20:33.323Z,13.52
2023-12-19T12:23:00.796Z,14.23
2023-12-19T12:25:28.614Z,14.10
2023-12-19T12:28:10.133Z,13.30
2023-12-19T12:30:38.512Z,12.90
2023-12-19T12:33:05.994Z,12.73
2023-12-19T12:35:37.417Z,13.20
2023-12-19T12:38:12.140Z,13.77
2023-12-19T12:40:38.881Z,12.63
2023-12-19T12:43:51.315Z,13.40
2023-12-19T12:46:22.790Z,13.80
2023-12-19T12:48:52.482Z,12.45
2023-12-19T12:51:19.825Z,12.98
2023-12-19T12:53:53.474Z,12.55
2023-12-19T12:56:20.123Z,12.98
2023-12-19T12:58:49.626Z,12.68
2023-12-19T13:01:16.180Z,12.48
2023-12-19T13:03:42.855Z,12.07
2023-12-19T13:06:09.839Z,11.82
2023-12-19T13:08:36.546Z,11.95
2023-12-19T13:11:04.349Z,11.40
2023-12-19T13:13:31.281Z,11.73
2023-12-19T13:15:58.014Z,12.63
2023-12-19T13:18:24.757Z,12.68
2023-12-19T13:20:53.206Z,12.18
2023-12-19T13:23:20.758Z,12.27
2023-12-19T13:25:48.096Z,12.87
2023-12-19T13:28:15.793Z,13.02
2023-12-19T13:30:43.654Z,12.63
2023-12-19T13:33:10.919Z,13.20
2023-12-19T13:35:37.590Z,13.50
2023-12-19T13:38:04.673Z,12.98
2023-12-19T13:40:32.333Z,13.20
2023-12-19T13:42:59.666Z,13.40
2023-12-19T13:45:27.786Z,14.30
2023-12-19T13:47:55.472Z,14.82
2023-12-19T13:50:22.213Z,13.85
2023-12-19T13:52:49.917Z,13.10
2023-12-19T13:55:16.653Z,13.68
2023-12-19T13:57:43.711Z,13.10
2023-12-19T14:00:22.274Z,13.45
2023-12-19T14:02:52.726Z,13.13
2023-12-19T14:05:19.489Z,13.50
2023-12-19T14:07:47.125Z,14.57
2023-12-19T14:10:14.135Z,13.85
2023-12-19T14:12:40.743Z,14.38
2023-12-19T14:15:14.771Z,16.33
2023-12-19T14:17:44.484Z,13.48
2023-12-19T14:20:13.337Z,13.65
2023-12-19T14:22:40.978Z,13.80
2023-12-19T14:25:10.023Z,13.13
2023-12-19T14:27:40.480Z,13.13
2023-12-19T14:30:09.646Z,12.98
2023-12-19T14:32:37.526Z,13.70
2023-12-19T14:35:06.039Z,13.30
2023-12-19T14:37:34.561Z,12.90
2023-12-19T14:40:01.316Z,13.88
2023-12-19T14:42:30.437Z,13.63
2023-12-19T14:44:58.111Z,12.67
2023-12-19T14:47:25.375Z,12.63
2023-12-19T14:49:52.056Z,12.70
2023-12-19T14:52:18.879Z,27.20
2023-12-19T14:54:46.905Z,17.73
2023-12-19T14:57:13.563Z,21.13
2023-12-19T14:59:40.880Z,13.60
2023-12-19T15:02:07.835Z,12.93
2023-12-19T15:04:36.175Z,30.80
2023-12-19T15:07:02.976Z,25.58
2023-12-19T15:09:29.752Z,13.55
2023-12-19T15:11:56.362Z,15.88
2023-12-19T15:14:23.534Z,14.45
2023-12-19T15:16:50.248Z,12.13
2023-12-19T15:19:17.095Z,12.68
2023-12-19T15:21:43.845Z,13.38
2023-12-19T15:24:10.457Z,12.73
2023-12-19T15:26:40.741Z,12.02
2023-12-19T15:29:09.508Z,13.73
2023-12-19T15:31:42.370Z,11.75
2023-12-19T15:34:10.134Z,12.00
2023-12-19T15:36:36.891Z,11.13
2023-12-19T15:39:04.743Z,11.73
2023-12-19T15:41:31.274Z,11.02
2023-12-19T15:44:07.531Z,10.95
2023-12-19T15:46:40.602Z,11.00
2023-12-19T15:49:09.960Z,11.90
2023-12-19T15:51:36.824Z,16.35
2023-12-19T15:54:04.607Z,11.10
2023-12-19T15:56:32.749Z,12.73
2023-12-19T15:58:59.998Z,10.90
2023-12-19T16:01:28.218Z,11.32
2023-12-19T16:03:55.777Z,11.20
2023-12-19T16:06:22.503Z,11.23
2023-12-19T16:08:49.053Z,10.40
2023-12-19T16:11:19.949Z,11.43
2023-12-19T16:13:47.302Z,12.00
2023-12-19T16:16:14.901Z,21.05
2023-12-19T16:18:42.877Z,11.35
2023-12-19T16:21:14.330Z,10.73
2023-12-19T16:23:53.022Z,10.63
2023-12-19T16:26:27.544Z,10.30
2023-12-19T16:28:54.074Z,11.30
2023-12-19T16:31:20.749Z,10.35
2023-12-19T16:33:47.584Z,10.57
2023-12-19T16:36:15.173Z,10.15
2023-12-19T16:38:43.029Z,9.60
2023-12-19T16:41:10.997Z,9.98
2023-12-19T16:43:38.708Z,9.90
2023-12-19T16:46:12.096Z,10.48
2023-12-19T16:48:39.319Z,9.70
2023-12-19T16:51:06.981Z,10.52
2023-12-19T16:53:34.180Z,10.07
2023-12-19T16:56:00.701Z,9.50
2023-12-19T16:58:36.490Z,9.90
2023-12-19T17:01:08.007Z,10.85
2023-12-19T17:03:34.875Z,9.60
2023-12-19T17:06:03.895Z,10.40
2023-12-19T17:08:30.428Z,13.15
2023-12-19T17:10:56.961Z,9.93
2023-12-19T17:13:23.490Z,11.15
2023-12-19T17:15:49.990Z,9.95
2023-12-19T17:18:16.598Z,10.35
2023-12-19T17:20:43.132Z,10.10
2023-12-19T17:23:09.702Z,10.75
2023-12-19T17:25:36.848Z,10.45
2023-12-19T17:28:03.576Z,10.52
2023-12-19T17:30:31.628Z,11.57
2023-12-19T17:32:59.095Z,10.43
2023-12-19T17:35:25.679Z,10.93
2023-12-19T17:37:52.543Z,11.23
2023-12-19T17:40:19.199Z,9.68
2023-12-19T17:42:46.328Z,9.95
2023-12-19T17:45:13.063Z,10.00
2023-12-19T17:47:39.628Z,9.50
2023-12-19T17:50:07.087Z,10.32
2023-12-19T17:52:33.785Z,10.50
2023-12-19T17:55:00.510Z,11.30
2023-12-19T17:57:27.068Z,12.55
2023-12-19T17:59:53.532Z,11.80
2023-12-19T18:02:20.016Z,11.07
2023-12-19T18:07:13.385Z,11.35
2023-12-19T18:09:40.004Z,11.90
2023-12-19T18:12:06.770Z,12.38
2023-12-19T18:14:33.311Z,12.23
2023-12-19T18:17:04.233Z,11.25
2023-12-19T18:19:33.968Z,12.32
2023-12-19T18:22:00.816Z,11.75
2023-12-19T18:24:27.775Z,11.43
2023-12-19T18:26:55.543Z,10.70
2023-12-19T18:29:22.322Z,11.20
2023-12-19T18:31:49.322Z,11.50
2023-12-19T18:34:16.243Z,10.80
2023-12-19T18:36:42.940Z,10.70
2023-12-19T18:39:09.503Z,10.25
2023-12-19T18:41:36.025Z,10.88
2023-12-19T18:44:02.572Z,10.73
2023-12-19T18:46:29.152Z,10.48
2023-12-19T18:48:55.853Z,10.20
2023-12-19T18:51:22.799Z,10.10
2023-12-19T18:53:49.729Z,10.40
2023-12-19T18:56:17.019Z,10.55
2023-12-19T18:58:44.865Z,10.75
2023-12-19T19:01:12.045Z,10.55
2023-12-19T19:03:41.259Z,10.18
2023-12-19T19:06:08.483Z,10.40
2023-12-19T19:08:35.379Z,10.38
2023-12-19T19:11:02.110Z,10.20
2023-12-19T19:13:28.823Z,10.13
2023-12-19T19:15:55.536Z,10.30
2023-12-19T19:18:24.070Z,10.55
2023-12-19T19:20:50.660Z,9.70
2023-12-19T19:23:18.161Z,10.18
2023-12-19T19:25:46.074Z,10.48
2023-12-19T19:28:13.827Z,9.68
2023-12-19T19:30:44.882Z,10.13
2023-12-19T19:33:11.861Z,9.82
2023-12-19T19:35:38.737Z,9.50
2023-12-19T19:38:05.665Z,9.77
2023-12-19T19:40:39.087Z,9.60
2023-12-19T19:43:11.107Z,9.77
2023-12-19T19:45:38.098Z,10.00
2023-12-19T19:48:05.201Z,9.82
2023-12-19T19:50:31.834Z,9.85
2023-12-19T19:52:58.699Z,12.23
2023-12-19T19:55:25.946Z,9.80
2023-12-19T19:57:53.614Z,9.82
2023-12-19T20:00:21.827Z,10.55
2023-12-19T20:02:48.458Z,9.85
2023-12-19T20:05:15.064Z,9.45
2023-12-19T20:07:41.703Z,8.85
2023-12-19T20:10:08.798Z,8.90
2023-12-19T20:12:35.480Z,8.57
2023-12-19T20:15:02.346Z,8.40
2023-12-19T20:17:29.025Z,8.93
2023-12-19T20:19:55.880Z,8.50
2023-12-19T20:22:22.601Z,8.20
2023-12-19T20:24:51.342Z,8.63
2023-12-19T20:27:18.045Z,7.97
2023-12-19T20:29:44.611Z,14.23
2023-12-19T20:32:11.148Z,12.13
2023-12-19T20:34:37.827Z,9.80
2023-12-19T20:37:04.934Z,6.43
2023-12-19T20:39:31.588Z,12.52
2023-12-19T20:41:58.680Z,6.93
2023-12-19T20:44:25.495Z,7.07
2023-12-19T20:46:53.564Z,10.25
2023-12-19T20:49:20.311Z,6.63
2023-12-19T20:51:49.097Z,6.38
2023-12-19T20:54:20.003Z,6.60
2023-12-19T20:56:50.947Z,6.30
2023-12-19T20:59:17.771Z,5.72
2023-12-19T21:01:46.661Z,5.55
2023-12-19T21:04:13.582Z,5.35
2023-12-19T21:06:41.670Z,5.50
2023-12-19T21:09:10.661Z,5.20
2023-12-19T21:11:37.258Z,5.10
2023-12-19T21:14:03.933Z,5.03
2023-12-19T21:16:30.667Z,4.53
2023-12-19T21:18:57.294Z,4.70
2023-12-19T21:21:24.164Z,4.63
2023-12-19T21:23:51.775Z,4.50
2023-12-19T21:26:18.615Z,4.45
2023-12-19T21:28:45.337Z,4.00
2023-12-19T21:31:12.048Z,4.40
2023-12-19T21:33:38.990Z,5.10
2023-12-19T21:36:05.679Z,4.35
2023-12-19T21:38:32.263Z,3.67
2023-12-19T21:40:58.901Z,5.03
2023-12-19T21:43:25.551Z,5.30
2023-12-19T21:45:52.315Z,3.38
2023-12-19T21:48:19.028Z,3.63
2023-12-19T21:50:47.208Z,3.22
2023-12-19T21:53:13.814Z,32.45
2023-12-19T21:55:40.310Z,2.58
2023-12-19T21:58:06.876Z,3.00
2023-12-19T22:00:33.540Z,2.60
2023-12-19T22:03:00.066Z,2.70
2023-12-19T22:05:26.538Z,2.40
2023-12-19T22:07:53.114Z,2.30
2023-12-19T22:10:20.230Z,2.50
2023-12-19T22:12:47.282Z,3.93
2023-12-19T22:15:16.477Z,3.83
2023-12-19T22:17:43.497Z,2.20
2023-12-19T22:20:10.531Z,2.20
2023-12-19T22:22:37.184Z,2.83
2023-12-19T22:25:04.057Z,2.15
2023-12-19T22:27:30.587Z,1.85
2023-12-19T22:29:57.086Z,1.90
2023-12-19T22:32:24.210Z,1.83
2023-12-19T22:34:50.750Z,1.90
2023-12-19T22:37:17.432Z,1.60
2023-12-19T22:39:44.019Z,1.80
2023-12-19T22:42:10.587Z,1.67
2023-12-19T22:44:37.162Z,1.63
2023-12-19T22:47:03.917Z,1.50
2023-12-19T22:49:32.754Z,1.60
2023-12-19T22:51:59.703Z,1.70
2023-12-19T22:54:26.276Z,1.30
2023-12-19T22:56:52.796Z,1.38
2023-12-19T22:59:19.284Z,1.20
2023-12-19T23:01:53.335Z,1.50
2023-12-19T23:04:21.196Z,1.20
2023-12-19T23:06:47.930Z,1.30
2023-12-19T23:09:14.634Z,1.13
2023-12-19T23:11:41.277Z,1.50
2023-12-19T23:14:08.096Z,1.30
2023-12-19T23:16:34.866Z,1.95
2023-12-19T23:19:01.845Z,2.30
2023-12-19T23:21:28.524Z,2.10
2023-12-19T23:23:55.038Z,2.25
2023-12-19T23:26:21.893Z,1.77
2023-12-19T23:28:48.447Z,1.40
2023-12-19T23:31:18.404Z,1.50
2023-12-19T23:33:46.813Z,1.27
2023-12-19T23:36:18.119Z,1.63
2023-12-19T23:38:45.006Z,1.70
2023-12-19T23:41:18.303Z,1.80
2023-12-19T23:43:45.963Z,3.40
2023-12-19T23:46:19.700Z,3.45
2023-12-19T23:48:47.380Z,2.50
2023-12-19T23:51:15.342Z,2.67
2023-12-19T23:53:41.918Z,2.08
2023-12-19T23:56:09.093Z,1.40
2023-12-19T23:58:36.389Z,1.60
